sensor_id;sensor_type;location;lat;lon;timestamp;temperature;humidity
4306;DHT22;2166;49.926;8.608;2023-07-16T00:01:04;19.60;78.90
4306;DHT22;2166;49.926;8.608;2023-07-16T00:03:33;19.50;78.80
4306;DHT22;2166;49.926;8.608;2023-07-16T00:06:01;19.50;78.70
4306;DHT22;2166;49.926;8.608;2023-07-16T00:08:30;19.50;78.70
4306;DHT22;2166;49.926;8.608;2023-07-16T00:11:00;19.50;78.80
4306;DHT22;2166;49.926;8.608;2023-07-16T00:13:28;19.40;78.90
4306;DHT22;2166;49.926;8.608;2023-07-16T00:15:57;19.50;78.90
4306;DHT22;2166;49.926;8.608;2023-07-16T00:18:26;19.50;78.90
4306;DHT22;2166;49.926;8.608;2023-07-16T00:20:56;19.50;78.70
4306;DHT22;2166;49.926;8.608;2023-07-16T00:23:25;19.40;78.60
4306;DHT22;2166;49.926;8.608;2023-07-16T00:25:53;19.30;78.30
4306;DHT22;2166;49.926;8.608;2023-07-16T00:28:23;19.30;78.20
4306;DHT22;2166;49.926;8.608;2023-07-16T00:30:52;19.20;78.00
4306;DHT22;2166;49.926;8.608;2023-07-16T00:33:22;19.20;78.00
4306;DHT22;2166;49.926;8.608;2023-07-16T00:35:50;19.10;77.80
4306;DHT22;2166;49.926;8.608;2023-07-16T00:38:19;19.10;77.80
4306;DHT22;2166;49.926;8.608;2023-07-16T00:40:50;19.10;77.90
4306;DHT22;2166;49.926;8.608;2023-07-16T00:43:18;19.10;78.00
4306;DHT22;2166;49.926;8.608;2023-07-16T00:45:51;19.00;77.90
4306;DHT22;2166;49.926;8.608;2023-07-16T00:48:20;18.90;77.80
4306;DHT22;2166;49.926;8.608;2023-07-16T00:50:51;18.90;77.70
4306;DHT22;2166;49.926;8.608;2023-07-16T00:53:23;18.80;77.40
4306;DHT22;2166;49.926;8.608;2023-07-16T00:55:51;18.80;77.40
4306;DHT22;2166;49.926;8.608;2023-07-16T00:58:20;18.80;77.30
4306;DHT22;2166;49.926;8.608;2023-07-16T01:00:52;18.70;77.20
4306;DHT22;2166;49.926;8.608;2023-07-16T01:03:21;18.70;77.30
4306;DHT22;2166;49.926;8.608;2023-07-16T01:05:57;18.70;77.20
4306;DHT22;2166;49.926;8.608;2023-07-16T01:08:31;18.70;77.20
4306;DHT22;2166;49.926;8.608;2023-07-16T01:11:02;18.70;77.20
4306;DHT22;2166;49.926;8.608;2023-07-16T01:13:34;18.60;77.20
4306;DHT22;2166;49.926;8.608;2023-07-16T01:16:04;18.60;77.20
4306;DHT22;2166;49.926;8.608;2023-07-16T01:18:36;18.60;77.10
4306;DHT22;2166;49.926;8.608;2023-07-16T01:21:04;18.60;77.10
4306;DHT22;2166;49.926;8.608;2023-07-16T01:23:50;18.50;77.10
4306;DHT22;2166;49.926;8.608;2023-07-16T01:26:33;18.50;77.60
4306;DHT22;2166;49.926;8.608;2023-07-16T01:32:04;18.40;77.70
4306;DHT22;2166;49.926;8.608;2023-07-16T01:34:38;18.30;77.70
4306;DHT22;2166;49.926;8.608;2023-07-16T01:37:11;18.20;77.80
4306;DHT22;2166;49.926;8.608;2023-07-16T01:39:41;18.10;77.70
4306;DHT22;2166;49.926;8.608;2023-07-16T01:42:11;18.10;77.70
4306;DHT22;2166;49.926;8.608;2023-07-16T01:44:43;18.00;77.80
4306;DHT22;2166;49.926;8.608;2023-07-16T01:47:17;18.00;77.90
4306;DHT22;2166;49.926;8.608;2023-07-16T01:49:48;18.00;77.90
4306;DHT22;2166;49.926;8.608;2023-07-16T01:52:18;17.90;78.00
4306;DHT22;2166;49.926;8.608;2023-07-16T01:54:47;17.90;78.00
4306;DHT22;2166;49.926;8.608;2023-07-16T01:57:15;17.90;78.00
4306;DHT22;2166;49.926;8.608;2023-07-16T01:59:45;17.90;77.90
4306;DHT22;2166;49.926;8.608;2023-07-16T02:02:14;17.90;77.90
4306;DHT22;2166;49.926;8.608;2023-07-16T02:04:45;17.90;77.90
4306;DHT22;2166;49.926;8.608;2023-07-16T02:07:13;17.90;77.90
4306;DHT22;2166;49.926;8.608;2023-07-16T02:09:42;17.80;77.90
4306;DHT22;2166;49.926;8.608;2023-07-16T02:12:11;17.80;77.90
4306;DHT22;2166;49.926;8.608;2023-07-16T02:14:40;17.80;77.90
4306;DHT22;2166;49.926;8.608;2023-07-16T02:17:10;17.80;77.90
4306;DHT22;2166;49.926;8.608;2023-07-16T02:19:40;17.80;77.90
4306;DHT22;2166;49.926;8.608;2023-07-16T02:22:09;17.80;77.90
4306;DHT22;2166;49.926;8.608;2023-07-16T02:24:39;17.80;77.90
4306;DHT22;2166;49.926;8.608;2023-07-16T02:27:08;17.80;77.80
4306;DHT22;2166;49.926;8.608;2023-07-16T02:29:36;17.70;77.80
4306;DHT22;2166;49.926;8.608;2023-07-16T02:32:06;17.70;77.90
4306;DHT22;2166;49.926;8.608;2023-07-16T02:34:38;17.70;77.80
4306;DHT22;2166;49.926;8.608;2023-07-16T02:37:06;17.70;77.80
4306;DHT22;2166;49.926;8.608;2023-07-16T02:39:38;17.70;77.80
4306;DHT22;2166;49.926;8.608;2023-07-16T02:42:08;17.70;77.80
4306;DHT22;2166;49.926;8.608;2023-07-16T02:44:37;17.80;77.70
4306;DHT22;2166;49.926;8.608;2023-07-16T02:47:10;17.80;77.70
4306;DHT22;2166;49.926;8.608;2023-07-16T02:49:41;17.90;77.70
4306;DHT22;2166;49.926;8.608;2023-07-16T02:52:09;17.90;77.70
4306;DHT22;2166;49.926;8.608;2023-07-16T02:54:38;17.90;77.70
4306;DHT22;2166;49.926;8.608;2023-07-16T02:57:07;17.90;77.70
4306;DHT22;2166;49.926;8.608;2023-07-16T02:59:37;18.00;77.50
4306;DHT22;2166;49.926;8.608;2023-07-16T03:02:06;17.90;77.50
4306;DHT22;2166;49.926;8.608;2023-07-16T03:04:34;17.90;77.50
4306;DHT22;2166;49.926;8.608;2023-07-16T03:07:05;17.90;77.50
4306;DHT22;2166;49.926;8.608;2023-07-16T03:09:34;17.80;77.50
4306;DHT22;2166;49.926;8.608;2023-07-16T03:12:05;17.80;77.50
4306;DHT22;2166;49.926;8.608;2023-07-16T03:14:34;17.70;77.60
4306;DHT22;2166;49.926;8.608;2023-07-16T03:17:04;17.70;77.60
4306;DHT22;2166;49.926;8.608;2023-07-16T03:19:34;17.60;77.60
4306;DHT22;2166;49.926;8.608;2023-07-16T03:22:03;17.50;77.70
4306;DHT22;2166;49.926;8.608;2023-07-16T03:24:33;17.50;77.70
4306;DHT22;2166;49.926;8.608;2023-07-16T03:27:02;17.40;77.80
4306;DHT22;2166;49.926;8.608;2023-07-16T03:29:46;17.30;77.90
4306;DHT22;2166;49.926;8.608;2023-07-16T03:32:17;17.20;78.00
4306;DHT22;2166;49.926;8.608;2023-07-16T03:34:45;17.20;78.10
4306;DHT22;2166;49.926;8.608;2023-07-16T03:37:14;17.20;78.20
4306;DHT22;2166;49.926;8.608;2023-07-16T03:39:44;17.10;78.10
4306;DHT22;2166;49.926;8.608;2023-07-16T03:42:13;17.10;78.10
4306;DHT22;2166;49.926;8.608;2023-07-16T03:44:42;17.10;78.10
4306;DHT22;2166;49.926;8.608;2023-07-16T03:47:11;17.10;78.10
4306;DHT22;2166;49.926;8.608;2023-07-16T03:49:39;17.00;78.10
4306;DHT22;2166;49.926;8.608;2023-07-16T03:52:08;17.00;78.00
4306;DHT22;2166;49.926;8.608;2023-07-16T03:54:37;17.00;77.90
4306;DHT22;2166;49.926;8.608;2023-07-16T03:57:07;17.00;77.90
4306;DHT22;2166;49.926;8.608;2023-07-16T03:59:35;17.00;77.90
4306;DHT22;2166;49.926;8.608;2023-07-16T04:02:04;17.00;77.90
4306;DHT22;2166;49.926;8.608;2023-07-16T04:04:34;17.10;77.80
4306;DHT22;2166;49.926;8.608;2023-07-16T04:07:03;17.10;77.80
4306;DHT22;2166;49.926;8.608;2023-07-16T04:09:32;17.10;77.70
4306;DHT22;2166;49.926;8.608;2023-07-16T04:12:01;17.10;77.60
4306;DHT22;2166;49.926;8.608;2023-07-16T04:14:31;17.10;77.60
4306;DHT22;2166;49.926;8.608;2023-07-16T04:17:00;17.20;77.50
4306;DHT22;2166;49.926;8.608;2023-07-16T04:19:29;17.20;77.50
4306;DHT22;2166;49.926;8.608;2023-07-16T04:21:58;17.30;77.40
4306;DHT22;2166;49.926;8.608;2023-07-16T04:24:27;17.50;77.40
4306;DHT22;2166;49.926;8.608;2023-07-16T04:26:55;17.70;77.10
4306;DHT22;2166;49.926;8.608;2023-07-16T04:29:24;18.00;76.90
4306;DHT22;2166;49.926;8.608;2023-07-16T04:31:54;18.30;76.60
4306;DHT22;2166;49.926;8.608;2023-07-16T04:34:23;18.40;76.40
4306;DHT22;2166;49.926;8.608;2023-07-16T04:36:52;18.60;76.50
4306;DHT22;2166;49.926;8.608;2023-07-16T04:39:21;18.60;76.30
4306;DHT22;2166;49.926;8.608;2023-07-16T04:41:50;18.90;76.30
4306;DHT22;2166;49.926;8.608;2023-07-16T04:44:20;19.10;76.30
4306;DHT22;2166;49.926;8.608;2023-07-16T04:46:50;19.20;76.10
4306;DHT22;2166;49.926;8.608;2023-07-16T04:49:21;19.40;76.20
4306;DHT22;2166;49.926;8.608;2023-07-16T04:51:50;19.50;76.10
4306;DHT22;2166;49.926;8.608;2023-07-16T04:54:19;19.50;75.90
4306;DHT22;2166;49.926;8.608;2023-07-16T04:56:47;19.60;75.90
4306;DHT22;2166;49.926;8.608;2023-07-16T04:59:15;19.60;76.00
4306;DHT22;2166;49.926;8.608;2023-07-16T05:01:44;19.50;75.90
4306;DHT22;2166;49.926;8.608;2023-07-16T05:04:13;19.70;75.70
4306;DHT22;2166;49.926;8.608;2023-07-16T05:06:43;19.80;75.70
4306;DHT22;2166;49.926;8.608;2023-07-16T05:09:15;19.70;75.90
4306;DHT22;2166;49.926;8.608;2023-07-16T05:11:43;19.90;75.70
4306;DHT22;2166;49.926;8.608;2023-07-16T05:14:12;19.90;75.70
4306;DHT22;2166;49.926;8.608;2023-07-16T05:16:41;19.90;75.90
4306;DHT22;2166;49.926;8.608;2023-07-16T05:19:18;20.00;75.70
4306;DHT22;2166;49.926;8.608;2023-07-16T05:21:49;20.20;75.80
4306;DHT22;2166;49.926;8.608;2023-07-16T05:24:17;20.30;75.50
4306;DHT22;2166;49.926;8.608;2023-07-16T05:26:46;20.40;75.40
4306;DHT22;2166;49.926;8.608;2023-07-16T05:29:16;20.40;75.50
4306;DHT22;2166;49.926;8.608;2023-07-16T05:31:46;20.40;75.50
4306;DHT22;2166;49.926;8.608;2023-07-16T05:34:16;20.50;75.60
4306;DHT22;2166;49.926;8.608;2023-07-16T05:36:46;20.70;75.90
4306;DHT22;2166;49.926;8.608;2023-07-16T05:39:16;20.90;75.60
4306;DHT22;2166;49.926;8.608;2023-07-16T05:41:44;21.00;75.20
4306;DHT22;2166;49.926;8.608;2023-07-16T05:44:14;21.30;75.20
4306;DHT22;2166;49.926;8.608;2023-07-16T05:46:43;21.50;75.30
4306;DHT22;2166;49.926;8.608;2023-07-16T05:49:11;21.60;75.10
4306;DHT22;2166;49.926;8.608;2023-07-16T05:51:41;21.60;75.20
4306;DHT22;2166;49.926;8.608;2023-07-16T05:54:11;21.70;75.30
4306;DHT22;2166;49.926;8.608;2023-07-16T05:56:43;21.90;74.80
4306;DHT22;2166;49.926;8.608;2023-07-16T05:59:12;21.80;75.10
4306;DHT22;2166;49.926;8.608;2023-07-16T06:01:45;21.80;75.10
4306;DHT22;2166;49.926;8.608;2023-07-16T06:04:14;22.20;74.70
4306;DHT22;2166;49.926;8.608;2023-07-16T06:06:43;22.10;74.30
4306;DHT22;2166;49.926;8.608;2023-07-16T06:09:13;22.30;74.20
4306;DHT22;2166;49.926;8.608;2023-07-16T06:11:46;22.30;73.90
4306;DHT22;2166;49.926;8.608;2023-07-16T06:14:16;22.50;74.10
4306;DHT22;2166;49.926;8.608;2023-07-16T06:16:45;22.60;73.40
4306;DHT22;2166;49.926;8.608;2023-07-16T06:19:16;22.60;73.30
4306;DHT22;2166;49.926;8.608;2023-07-16T06:21:45;23.00;73.40
4306;DHT22;2166;49.926;8.608;2023-07-16T06:24:13;23.10;72.60
4306;DHT22;2166;49.926;8.608;2023-07-16T06:26:46;23.10;72.50
4306;DHT22;2166;49.926;8.608;2023-07-16T06:29:15;23.40;72.40
4306;DHT22;2166;49.926;8.608;2023-07-16T06:31:54;23.90;72.10
4306;DHT22;2166;49.926;8.608;2023-07-16T06:34:25;24.10;71.50
4306;DHT22;2166;49.926;8.608;2023-07-16T06:36:54;23.70;72.40
4306;DHT22;2166;49.926;8.608;2023-07-16T06:39:23;23.90;72.50
4306;DHT22;2166;49.926;8.608;2023-07-16T06:41:53;23.90;72.20
4306;DHT22;2166;49.926;8.608;2023-07-16T06:44:22;23.90;72.10
4306;DHT22;2166;49.926;8.608;2023-07-16T06:46:51;24.60;71.30
4306;DHT22;2166;49.926;8.608;2023-07-16T06:49:21;24.60;69.60
4306;DHT22;2166;49.926;8.608;2023-07-16T06:51:50;24.20;70.80
4306;DHT22;2166;49.926;8.608;2023-07-16T06:54:19;24.20;70.60
4306;DHT22;2166;49.926;8.608;2023-07-16T06:56:48;24.40;70.60
4306;DHT22;2166;49.926;8.608;2023-07-16T06:59:18;24.70;69.00
4306;DHT22;2166;49.926;8.608;2023-07-16T07:01:47;24.50;69.30
4306;DHT22;2166;49.926;8.608;2023-07-16T07:04:16;24.60;70.40
4306;DHT22;2166;49.926;8.608;2023-07-16T07:06:45;24.70;69.10
4306;DHT22;2166;49.926;8.608;2023-07-16T07:09:14;24.40;69.50
4306;DHT22;2166;49.926;8.608;2023-07-16T07:11:43;24.40;68.70
4306;DHT22;2166;49.926;8.608;2023-07-16T07:14:12;24.40;70.10
4306;DHT22;2166;49.926;8.608;2023-07-16T07:16:44;24.70;68.70
4306;DHT22;2166;49.926;8.608;2023-07-16T07:19:15;24.30;68.80
4306;DHT22;2166;49.926;8.608;2023-07-16T07:21:43;24.10;69.30
4306;DHT22;2166;49.926;8.608;2023-07-16T07:24:12;24.40;68.40
4306;DHT22;2166;49.926;8.608;2023-07-16T07:26:43;24.70;67.20
4306;DHT22;2166;49.926;8.608;2023-07-16T07:29:11;24.50;68.00
4306;DHT22;2166;49.926;8.608;2023-07-16T07:31:40;24.20;67.40
4306;DHT22;2166;49.926;8.608;2023-07-16T07:34:11;24.70;66.80
4306;DHT22;2166;49.926;8.608;2023-07-16T07:36:43;24.80;66.90
4306;DHT22;2166;49.926;8.608;2023-07-16T07:39:11;24.00;67.00
4306;DHT22;2166;49.926;8.608;2023-07-16T07:41:40;24.00;67.70
4306;DHT22;2166;49.926;8.608;2023-07-16T07:44:08;23.80;68.90
4306;DHT22;2166;49.926;8.608;2023-07-16T07:46:39;23.40;70.00
4306;DHT22;2166;49.926;8.608;2023-07-16T07:49:07;23.80;68.10
4306;DHT22;2166;49.926;8.608;2023-07-16T07:51:38;24.20;66.60
4306;DHT22;2166;49.926;8.608;2023-07-16T07:54:07;24.10;66.20
4306;DHT22;2166;49.926;8.608;2023-07-16T07:56:36;23.90;66.30
4306;DHT22;2166;49.926;8.608;2023-07-16T07:59:06;24.40;66.80
4306;DHT22;2166;49.926;8.608;2023-07-16T08:01:35;25.10;65.10
4306;DHT22;2166;49.926;8.608;2023-07-16T08:04:04;25.60;63.70
4306;DHT22;2166;49.926;8.608;2023-07-16T08:06:33;25.90;59.50
4306;DHT22;2166;49.926;8.608;2023-07-16T08:09:03;26.30;59.10
4306;DHT22;2166;49.926;8.608;2023-07-16T08:11:32;26.70;58.30
4306;DHT22;2166;49.926;8.608;2023-07-16T08:14:01;27.40;57.90
4306;DHT22;2166;49.926;8.608;2023-07-16T08:16:31;28.30;54.30
4306;DHT22;2166;49.926;8.608;2023-07-16T08:19:00;28.40;54.40
4306;DHT22;2166;49.926;8.608;2023-07-16T08:21:29;27.80;54.70
4306;DHT22;2166;49.926;8.608;2023-07-16T08:23:58;27.60;54.90
4306;DHT22;2166;49.926;8.608;2023-07-16T08:26:28;27.30;55.30
4306;DHT22;2166;49.926;8.608;2023-07-16T08:28:57;27.20;55.10
4306;DHT22;2166;49.926;8.608;2023-07-16T08:31:26;27.20;55.10
4306;DHT22;2166;49.926;8.608;2023-07-16T08:33:55;26.90;56.80
4306;DHT22;2166;49.926;8.608;2023-07-16T08:36:26;26.10;57.90
4306;DHT22;2166;49.926;8.608;2023-07-16T08:38:54;25.80;56.80
4306;DHT22;2166;49.926;8.608;2023-07-16T08:41:24;25.80;57.40
4306;DHT22;2166;49.926;8.608;2023-07-16T08:43:55;25.70;58.20
4306;DHT22;2166;49.926;8.608;2023-07-16T08:46:24;25.50;59.00
4306;DHT22;2166;49.926;8.608;2023-07-16T08:48:53;25.60;59.70
4306;DHT22;2166;49.926;8.608;2023-07-16T08:51:23;25.70;57.80
4306;DHT22;2166;49.926;8.608;2023-07-16T08:53:53;26.20;58.10
4306;DHT22;2166;49.926;8.608;2023-07-16T08:56:21;26.70;54.80
4306;DHT22;2166;49.926;8.608;2023-07-16T08:58:50;26.40;53.90
4306;DHT22;2166;49.926;8.608;2023-07-16T09:01:25;25.40;55.20
4306;DHT22;2166;49.926;8.608;2023-07-16T09:03:55;24.40;57.90
4306;DHT22;2166;49.926;8.608;2023-07-16T09:06:24;23.80;59.40
4306;DHT22;2166;49.926;8.608;2023-07-16T09:08:53;23.40;60.80
4306;DHT22;2166;49.926;8.608;2023-07-16T09:11:22;23.90;61.30
4306;DHT22;2166;49.926;8.608;2023-07-16T09:13:52;24.50;58.30
4306;DHT22;2166;49.926;8.608;2023-07-16T09:16:21;24.50;58.80
4306;DHT22;2166;49.926;8.608;2023-07-16T09:18:55;25.40;57.60
4306;DHT22;2166;49.926;8.608;2023-07-16T09:21:24;26.10;56.40
4306;DHT22;2166;49.926;8.608;2023-07-16T09:23:56;26.30;54.40
4306;DHT22;2166;49.926;8.608;2023-07-16T09:26:25;26.80;53.00
4306;DHT22;2166;49.926;8.608;2023-07-16T09:28:54;27.70;51.90
4306;DHT22;2166;49.926;8.608;2023-07-16T09:31:22;29.00;50.40
4306;DHT22;2166;49.926;8.608;2023-07-16T09:33:52;29.10;48.00
4306;DHT22;2166;49.926;8.608;2023-07-16T09:36:26;28.30;49.40
4306;DHT22;2166;49.926;8.608;2023-07-16T09:38:55;28.00;50.70
4306;DHT22;2166;49.926;8.608;2023-07-16T09:41:24;28.10;49.70
4306;DHT22;2166;49.926;8.608;2023-07-16T09:43:53;27.30;50.20
4306;DHT22;2166;49.926;8.608;2023-07-16T09:46:22;26.10;52.20
4306;DHT22;2166;49.926;8.608;2023-07-16T09:48:52;26.40;53.90
4306;DHT22;2166;49.926;8.608;2023-07-16T09:51:21;26.20;52.40
4306;DHT22;2166;49.926;8.608;2023-07-16T09:53:52;25.70;53.80
4306;DHT22;2166;49.926;8.608;2023-07-16T09:56:20;25.40;54.20
4306;DHT22;2166;49.926;8.608;2023-07-16T09:58:51;25.20;54.70
4306;DHT22;2166;49.926;8.608;2023-07-16T10:01:21;24.80;55.00
4306;DHT22;2166;49.926;8.608;2023-07-16T10:03:51;25.60;53.10
4306;DHT22;2166;49.926;8.608;2023-07-16T10:06:21;26.60;51.70
4306;DHT22;2166;49.926;8.608;2023-07-16T10:08:51;26.80;51.00
4306;DHT22;2166;49.926;8.608;2023-07-16T10:11:19;26.60;50.90
4306;DHT22;2166;49.926;8.608;2023-07-16T10:13:51;27.40;49.00
4306;DHT22;2166;49.926;8.608;2023-07-16T10:16:20;27.60;49.20
4306;DHT22;2166;49.926;8.608;2023-07-16T10:18:52;28.10;47.30
4306;DHT22;2166;49.926;8.608;2023-07-16T10:21:23;28.50;46.90
4306;DHT22;2166;49.926;8.608;2023-07-16T10:23:58;28.90;46.50
4306;DHT22;2166;49.926;8.608;2023-07-16T10:26:27;29.30;45.20
4306;DHT22;2166;49.926;8.608;2023-07-16T10:28:56;29.20;45.40
4306;DHT22;2166;49.926;8.608;2023-07-16T10:31:25;28.20;46.60
4306;DHT22;2166;49.926;8.608;2023-07-16T10:34:01;27.80;47.70
4306;DHT22;2166;49.926;8.608;2023-07-16T10:36:37;28.40;47.40
4306;DHT22;2166;49.926;8.608;2023-07-16T10:39:07;29.00;44.60
4306;DHT22;2166;49.926;8.608;2023-07-16T10:41:35;29.80;45.30
4306;DHT22;2166;49.926;8.608;2023-07-16T10:44:04;30.80;44.20
4306;DHT22;2166;49.926;8.608;2023-07-16T10:46:33;31.20;42.50
4306;DHT22;2166;49.926;8.608;2023-07-16T10:49:02;30.90;41.50
4306;DHT22;2166;49.926;8.608;2023-07-16T10:51:33;30.50;42.70
4306;DHT22;2166;49.926;8.608;2023-07-16T10:54:02;31.30;42.00
4306;DHT22;2166;49.926;8.608;2023-07-16T10:56:35;31.80;40.80
4306;DHT22;2166;49.926;8.608;2023-07-16T10:59:05;31.30;41.40
4306;DHT22;2166;49.926;8.608;2023-07-16T11:01:38;31.20;40.70
4306;DHT22;2166;49.926;8.608;2023-07-16T11:04:08;30.80;42.30
4306;DHT22;2166;49.926;8.608;2023-07-16T11:06:37;30.40;41.20
4306;DHT22;2166;49.926;8.608;2023-07-16T11:09:06;30.40;42.00
4306;DHT22;2166;49.926;8.608;2023-07-16T11:11:37;30.90;40.30
4306;DHT22;2166;49.926;8.608;2023-07-16T11:14:10;31.10;41.40
4306;DHT22;2166;49.926;8.608;2023-07-16T11:16:39;31.20;41.10
4306;DHT22;2166;49.926;8.608;2023-07-16T11:19:10;31.10;41.20
4306;DHT22;2166;49.926;8.608;2023-07-16T11:21:39;30.70;41.70
4306;DHT22;2166;49.926;8.608;2023-07-16T11:24:08;31.00;41.60
4306;DHT22;2166;49.926;8.608;2023-07-16T11:26:50;31.30;40.60
4306;DHT22;2166;49.926;8.608;2023-07-16T11:29:19;31.50;41.40
4306;DHT22;2166;49.926;8.608;2023-07-16T11:31:49;31.50;40.70
4306;DHT22;2166;49.926;8.608;2023-07-16T11:34:20;31.30;40.90
4306;DHT22;2166;49.926;8.608;2023-07-16T11:36:50;31.10;40.60
4306;DHT22;2166;49.926;8.608;2023-07-16T11:39:19;31.20;40.10
4306;DHT22;2166;49.926;8.608;2023-07-16T11:41:55;31.40;40.00
4306;DHT22;2166;49.926;8.608;2023-07-16T11:44:25;31.30;40.40
4306;DHT22;2166;49.926;8.608;2023-07-16T11:46:58;31.00;41.40
4306;DHT22;2166;49.926;8.608;2023-07-16T11:49:27;30.90;41.20
4306;DHT22;2166;49.926;8.608;2023-07-16T11:51:57;31.20;41.00
4306;DHT22;2166;49.926;8.608;2023-07-16T11:54:27;31.90;40.80
4306;DHT22;2166;49.926;8.608;2023-07-16T11:56:57;32.30;39.30
4306;DHT22;2166;49.926;8.608;2023-07-16T11:59:26;32.60;39.90
4306;DHT22;2166;49.926;8.608;2023-07-16T12:01:55;32.50;40.10
4306;DHT22;2166;49.926;8.608;2023-07-16T12:04:23;33.20;38.70
4306;DHT22;2166;49.926;8.608;2023-07-16T12:06:52;33.50;37.40
4306;DHT22;2166;49.926;8.608;2023-07-16T12:09:21;33.40;37.20
4306;DHT22;2166;49.926;8.608;2023-07-16T12:11:50;33.40;37.10
4306;DHT22;2166;49.926;8.608;2023-07-16T12:14:21;33.30;37.40
4306;DHT22;2166;49.926;8.608;2023-07-16T12:16:50;33.10;37.70
4306;DHT22;2166;49.926;8.608;2023-07-16T12:19:20;32.10;39.30
4306;DHT22;2166;49.926;8.608;2023-07-16T12:21:49;31.40;39.80
4306;DHT22;2166;49.926;8.608;2023-07-16T12:24:20;31.00;39.30
4306;DHT22;2166;49.926;8.608;2023-07-16T12:26:49;30.70;39.30
4306;DHT22;2166;49.926;8.608;2023-07-16T12:29:17;30.40;40.80
4306;DHT22;2166;49.926;8.608;2023-07-16T12:31:47;30.70;41.30
4306;DHT22;2166;49.926;8.608;2023-07-16T12:34:16;30.60;40.10
4306;DHT22;2166;49.926;8.608;2023-07-16T12:36:44;29.70;41.40
4306;DHT22;2166;49.926;8.608;2023-07-16T12:39:13;29.90;41.60
4306;DHT22;2166;49.926;8.608;2023-07-16T12:41:43;29.60;42.40
4306;DHT22;2166;49.926;8.608;2023-07-16T12:44:11;28.80;43.20
4306;DHT22;2166;49.926;8.608;2023-07-16T12:46:42;28.70;44.20
4306;DHT22;2166;49.926;8.608;2023-07-16T12:49:13;29.70;43.30
4306;DHT22;2166;49.926;8.608;2023-07-16T12:51:42;30.50;40.90
4306;DHT22;2166;49.926;8.608;2023-07-16T12:54:10;30.50;40.90
4306;DHT22;2166;49.926;8.608;2023-07-16T12:56:39;31.40;40.90
4306;DHT22;2166;49.926;8.608;2023-07-16T12:59:11;32.20;39.40
4306;DHT22;2166;49.926;8.608;2023-07-16T13:01:40;32.50;38.00
4306;DHT22;2166;49.926;8.608;2023-07-16T13:04:10;31.10;39.60
4306;DHT22;2166;49.926;8.608;2023-07-16T13:06:50;31.20;40.20
4306;DHT22;2166;49.926;8.608;2023-07-16T13:09:18;31.50;40.00
4306;DHT22;2166;49.926;8.608;2023-07-16T13:11:47;31.20;39.40
4306;DHT22;2166;49.926;8.608;2023-07-16T13:14:19;31.30;39.90
4306;DHT22;2166;49.926;8.608;2023-07-16T13:16:47;31.90;39.10
4306;DHT22;2166;49.926;8.608;2023-07-16T13:19:16;32.80;39.30
4306;DHT22;2166;49.926;8.608;2023-07-16T13:21:46;33.50;36.60
4306;DHT22;2166;49.926;8.608;2023-07-16T13:24:18;33.80;37.10
4306;DHT22;2166;49.926;8.608;2023-07-16T13:26:48;33.90;37.50
4306;DHT22;2166;49.926;8.608;2023-07-16T13:29:16;33.10;36.90
4306;DHT22;2166;49.926;8.608;2023-07-16T13:31:44;32.60;38.50
4306;DHT22;2166;49.926;8.608;2023-07-16T13:34:15;32.40;37.70
4306;DHT22;2166;49.926;8.608;2023-07-16T13:36:43;32.00;38.50
4306;DHT22;2166;49.926;8.608;2023-07-16T13:39:14;31.90;39.20
4306;DHT22;2166;49.926;8.608;2023-07-16T13:41:43;32.10;38.40
4306;DHT22;2166;49.926;8.608;2023-07-16T13:44:12;32.30;38.60
4306;DHT22;2166;49.926;8.608;2023-07-16T13:46:41;31.60;38.70
4306;DHT22;2166;49.926;8.608;2023-07-16T13:49:10;31.20;38.70
4306;DHT22;2166;49.926;8.608;2023-07-16T13:51:44;31.00;39.00
4306;DHT22;2166;49.926;8.608;2023-07-16T13:54:17;31.00;39.80
4306;DHT22;2166;49.926;8.608;2023-07-16T13:56:46;31.80;39.40
4306;DHT22;2166;49.926;8.608;2023-07-16T13:59:14;32.00;38.90
4306;DHT22;2166;49.926;8.608;2023-07-16T14:01:44;31.70;38.50
4306;DHT22;2166;49.926;8.608;2023-07-16T14:04:15;31.70;38.80
4306;DHT22;2166;49.926;8.608;2023-07-16T14:06:43;31.40;39.00
4306;DHT22;2166;49.926;8.608;2023-07-16T14:09:14;31.70;38.60
4306;DHT22;2166;49.926;8.608;2023-07-16T14:11:46;31.60;38.80
4306;DHT22;2166;49.926;8.608;2023-07-16T14:14:16;31.80;38.20
4306;DHT22;2166;49.926;8.608;2023-07-16T14:16:45;31.70;38.90
4306;DHT22;2166;49.926;8.608;2023-07-16T14:19:14;31.50;38.80
4306;DHT22;2166;49.926;8.608;2023-07-16T14:21:43;31.80;39.20
4306;DHT22;2166;49.926;8.608;2023-07-16T14:24:11;31.60;38.40
4306;DHT22;2166;49.926;8.608;2023-07-16T14:26:40;31.20;38.80
4306;DHT22;2166;49.926;8.608;2023-07-16T14:29:14;31.50;39.20
4306;DHT22;2166;49.926;8.608;2023-07-16T14:31:43;31.70;39.10
4306;DHT22;2166;49.926;8.608;2023-07-16T14:34:11;32.00;39.00
4306;DHT22;2166;49.926;8.608;2023-07-16T14:36:41;32.40;37.60
4306;DHT22;2166;49.926;8.608;2023-07-16T14:39:10;32.60;37.60
4306;DHT22;2166;49.926;8.608;2023-07-16T14:41:41;32.20;37.40
4306;DHT22;2166;49.926;8.608;2023-07-16T14:44:11;31.50;38.70
4306;DHT22;2166;49.926;8.608;2023-07-16T14:46:40;30.90;39.10
4306;DHT22;2166;49.926;8.608;2023-07-16T14:49:09;30.80;39.60
4306;DHT22;2166;49.926;8.608;2023-07-16T14:51:38;30.90;39.40
4306;DHT22;2166;49.926;8.608;2023-07-16T14:54:09;31.10;39.30
4306;DHT22;2166;49.926;8.608;2023-07-16T14:56:37;31.30;38.90
4306;DHT22;2166;49.926;8.608;2023-07-16T14:59:06;30.80;39.40
4306;DHT22;2166;49.926;8.608;2023-07-16T15:01:35;30.90;39.60
4306;DHT22;2166;49.926;8.608;2023-07-16T15:04:04;31.20;39.20
4306;DHT22;2166;49.926;8.608;2023-07-16T15:06:33;30.70;39.70
4306;DHT22;2166;49.926;8.608;2023-07-16T15:09:02;30.70;39.00
4306;DHT22;2166;49.926;8.608;2023-07-16T15:11:30;30.80;39.80
4306;DHT22;2166;49.926;8.608;2023-07-16T15:14:01;31.20;39.30
4306;DHT22;2166;49.926;8.608;2023-07-16T15:16:30;31.70;39.20
4306;DHT22;2166;49.926;8.608;2023-07-16T15:19:00;32.20;38.50
4306;DHT22;2166;49.926;8.608;2023-07-16T15:21:29;32.50;37.00
4306;DHT22;2166;49.926;8.608;2023-07-16T15:23:58;32.30;38.00
4306;DHT22;2166;49.926;8.608;2023-07-16T15:26:27;32.00;38.20
4306;DHT22;2166;49.926;8.608;2023-07-16T15:28:57;31.70;38.70
4306;DHT22;2166;49.926;8.608;2023-07-16T15:31:26;31.70;38.30
4306;DHT22;2166;49.926;8.608;2023-07-16T15:33:57;31.60;38.70
4306;DHT22;2166;49.926;8.608;2023-07-16T15:36:27;31.30;39.10
4306;DHT22;2166;49.926;8.608;2023-07-16T15:38:56;31.30;39.50
4306;DHT22;2166;49.926;8.608;2023-07-16T15:41:24;31.10;39.00
4306;DHT22;2166;49.926;8.608;2023-07-16T15:43:56;30.90;39.80
4306;DHT22;2166;49.926;8.608;2023-07-16T15:46:24;31.00;39.90
4306;DHT22;2166;49.926;8.608;2023-07-16T15:48:53;31.00;40.00
4306;DHT22;2166;49.926;8.608;2023-07-16T15:51:21;31.50;38.60
4306;DHT22;2166;49.926;8.608;2023-07-16T15:53:54;31.50;39.20
4306;DHT22;2166;49.926;8.608;2023-07-16T15:56:23;31.10;39.80
4306;DHT22;2166;49.926;8.608;2023-07-16T15:58:51;31.10;38.90
4306;DHT22;2166;49.926;8.608;2023-07-16T16:01:21;30.90;39.90
4306;DHT22;2166;49.926;8.608;2023-07-16T16:03:50;30.90;39.80
4306;DHT22;2166;49.926;8.608;2023-07-16T16:06:21;30.70;39.90
4306;DHT22;2166;49.926;8.608;2023-07-16T16:08:50;31.10;39.80
4306;DHT22;2166;49.926;8.608;2023-07-16T16:11:21;31.30;39.20
4306;DHT22;2166;49.926;8.608;2023-07-16T16:13:50;31.60;39.40
4306;DHT22;2166;49.926;8.608;2023-07-16T16:16:19;31.70;38.40
4306;DHT22;2166;49.926;8.608;2023-07-16T16:18:48;31.60;39.40
4306;DHT22;2166;49.926;8.608;2023-07-16T16:21:18;31.70;39.20